Nora Springs, IA (50458)

12:18 PM CDT on August 29, 2015 (GMT -0500)
IEM | | Change Station
CLOSE
Current Station
Personal Weather Station
Location: Rockford, IA
Elevation: 1036 ft
Nearby Weather Stations

Elev 1036 ft 43.05 °N, 92.93 °W | Updated 19 minutes ago

Overcast
Overcast
64 °F
Feels Like 64 °F
N
5
Wind Variable Wind from ENE
Gusts 0.0 mph

Today
High -- | Low -- °F
--% Chance of Precip.
Yesterday
High -- | Low -- °F
Precip. -- in
6:32 AM 7:52 PM
Full, 100% visible
Pressure 30.06 in
Visibility 10.0 miles
Clouds Overcast 1100 ft
Dew Point 64 °F
Humidity 100%
Rainfall in
Snow Depth Not available.
UV 2 out of 12
Pollen 8.00 out of 12
Air Quality Not available.
Flu Activity Not available.
METAR KMCW 291653Z AUTO 03007KT 10SM OVC011 19/17 A3008 RMK AO2 SLP178 T01940167 $
Pressure 30.06 in
Visibility 10.0 miles
Clouds Overcast 1100 ft
Dew Point 64 °F
Humidity 100%
Rainfall in
Snow Depth Not available.
UV 2 out of 12
Pollen 8.00 out of 12
Air Quality Not available.
Flu Activity Not available.
METAR KMCW 291653Z AUTO 03007KT 10SM OVC011 19/17 A3008 RMK AO2 SLP178 T01940167 $

10-Day Weather Forecast

×

Almanac

Astronomy

Aug. 29, 2015 Rise Set
Actual Time
Civil Twilight
Nautical Twilight
Astronomical Twilight
Moon
Length of Visible Light
Length of Day
Tomorrow will be .
, % of the Moon is Illuminated

Today's Extremes

State Highs State Lows

Community

WunderPhotos

Upload Photos

1,850,733 photos uploaded!

WunderBlogs® & News

Nearby

Air Quality

  Air Quality AQ Index Pollutant
Not available.

Snow Depth

Station Depth Elevation

Earthquake Activity

City Distance Mag. Time & Date
Minimum magnitude displayed is 2.5.

Coastal Water Temperatures

Place Temperature

Stations

Nearby Weather Stations

Station Location Temp. Windchill Dew Point Humidity Wind Precip. Elev Updated Type